Powers Lake, Wisconsin
Current Conditions -  °F | °C
As of 11:55 AM on Thursday 23 Oct 2014 (Local Time) from KBUU Reporting Station
Clear Clear  
Wind Chill: 57°   Ceiling: Unl
Heat Index: 57°   Visibility: 10mi
Dew Point: 40°   Wind: 9mph
Humidity: 54%   Direction: 190°S
Pressure: 30.14"   Gusts: NA
Location:  42.54°N, 88.3°W
Report Text: KBUU 231655Z AUTO 19008KT 160V220 10SM CLR 14/05 A3014 RMK AO2 T01380045
Loading
Personal Weather Stations






























Interactive Weather Map
Tropical Storm Tracking
New forecast layout! Learn more

10-Day Weather Forecast

Advertisements
Track Severe Weather on mobile